Home   Weather   Germany   Rathenow   Past weeks
Flag for Germany

Past Weather in Rathenow, Brandenburg, Germany — Yesterday and Last 2 Weeks

Currently: 70 °F. Passing clouds. (Weather station: Berlin-Schoenefeld, Germany). See more current weather

Past Weather in Rathenow — Graph

°F

Rathenow Temperature Yesterday

Maximum temperature yesterday: 75 °F (at 3:50 pm)
Minimum temperature yesterday: 61 °F (at 2:50 am)
Average temperature yesterday: 67 °F

High & Low Weather Summary for the Past Weeks

 TemperatureHumidityPressure
High90 °F (Jul 21, 1:50 pm)100% (Jul 10, 11:50 pm)30.24 "Hg (Jul 10, 11:50 pm)
Low52 °F (Jul 25, 5:20 am)29% (Jul 15, 3:50 pm)29.71 "Hg (Jul 21, 6:20 pm)
Average70 °F69%29.96 "Hg
* Reported Jul 10 1:20 pm — Jul 25 1:50 pm, Rathenow. Weather by CustomWeather, © 2024

Note: Actual official high and low records may vary slightly from our data, if they occured in-between our weather recording intervals... More about our weather records

Rathenow Weather History for the Previous 24 Hours

Scroll right to see more
 ConditionsComfort  
Time TempWeatherWind HumidityBarometerVisibility
1:50 pm
Thu, Jul 25
70 °FPassing clouds.12 mph46%29.98 "HgN/A
1:20 pm70 °FPassing clouds.8 mph50%29.98 "HgN/A
12:50 pm70 °FPassing clouds.10 mph46%30.01 "HgN/A
12:20 pm68 °FPassing clouds.10 mph49%30.01 "HgN/A
11:50 am68 °FPassing clouds.10 mph49%30.01 "HgN/A
11:20 am68 °FPassing clouds.9 mph53%30.01 "HgN/A
10:20 am66 °FPassing clouds.9 mph56%30.01 "HgN/A
9:50 am64 °FPassing clouds.12 mph60%30.01 "HgN/A
9:20 am64 °FPassing clouds.9 mph60%30.04 "HgN/A
8:50 am63 °FPassing clouds.10 mph64%30.04 "HgN/A
8:20 am61 °FSunny.8 mph72%30.04 "Hg10 mi
7:50 am61 °FSunny.7 mph72%30.04 "Hg10 mi
7:20 am59 °FSunny.7 mph72%30.04 "Hg10 mi
6:50 am57 °FSunny.7 mph77%30.04 "Hg10 mi
6:20 am55 °FSunny.6 mph82%30.04 "Hg10 mi
5:50 am55 °FSunny.8 mph82%30.04 "Hg10 mi
5:20 am52 °FSunny.6 mph88%30.04 "Hg10 mi
4:50 am54 °FClear.5 mph82%30.04 "Hg10 mi
4:20 am54 °FClear.5 mph88%30.01 "Hg10 mi
3:50 am57 °FPassing clouds.6 mph77%30.01 "HgN/A
3:20 am57 °FPassing clouds.6 mph77%30.01 "HgN/A
2:20 am59 °FClear.7 mph77%30.04 "Hg10 mi
1:50 am57 °FClear.6 mph77%30.04 "Hg10 mi
1:20 am59 °FClear.6 mph77%30.04 "Hg10 mi
12:50 am61 °FClear.7 mph72%30.04 "Hg10 mi
12:20 am63 °FClear.7 mph68%30.04 "Hg10 mi
11:50 pm
Wed, Jul 24
63 °FClear.8 mph68%30.04 "Hg10 mi
11:20 pm64 °FClear.9 mph64%30.01 "Hg10 mi
10:20 pm64 °FClear.7 mph64%30.01 "Hg10 mi
9:50 pm66 °FClear.8 mph64%30.01 "Hg10 mi
9:20 pm68 °FPassing clouds.13 mph60%30.01 "HgN/A
8:50 pm70 °FScattered clouds.10 mph57%30.01 "HgN/A
8:20 pm70 °FPassing clouds.8 mph53%30.01 "HgN/A
7:50 pm72 °FPassing clouds.12 mph50%30.01 "HgN/A
7:20 pm73 °FPassing clouds.10 mph50%29.98 "HgN/A
6:50 pm73 °FPassing clouds.13 mph47%29.98 "HgN/A
6:20 pm73 °FSunny.16 mph47%29.98 "Hg10 mi
5:50 pm73 °FPassing clouds.14 mph50%29.98 "HgN/A
5:20 pm73 °FPassing clouds.16 mph50%29.98 "HgN/A
4:50 pm73 °FScattered clouds.14 mph50%30.01 "HgN/A
4:20 pm72 °FScattered clouds.16 mph53%30.01 "HgN/A
3:50 pm75 °FScattered clouds.17 mph50%29.98 "HgN/A
3:20 pm73 °FScattered clouds.14 mph53%29.98 "HgN/A
2:50 pm72 °FScattered clouds.15 mph57%30.01 "HgN/A
2:20 pm73 °FPassing clouds.15 mph57%30.01 "HgN/A
Weather by CustomWeather, © 2024

See weather overview